Surat Thani, Thailand

3:52 PM ICT on December 29, 2014 (GMT +0700)
Surat Thani | Change Station
CLOSE
Current Station
Airport
Location: Surat Thani,
Elevation: 23 ft
Nearby Weather Stations

Elev 23 ft 9.13 °N, 99.15 °E | Updated 52 minutes ago

Rain
Rain
81 °F
Feels Like 89 °F
N
15
Wind Variable Wind from NE

Today
High -- | Low -- °F
--% Chance of Precip.
Yesterday
High -- | Low -- °F
Precip. -- in
6:37 AM 6:13 PM
First Quarter, 57% visible
Pressure 29.80 in
Visibility 3.1 miles
Clouds Mostly Cloudy 1700 ft
Heat Index 89 °F
Dew Point 81 °F
Humidity 100%
Rainfall 0.00 in
Snow Depth Not available.
UV 4 out of 12
Pollen Not available.
Air Quality Not available.
Flu Activity Not available.
METAR VTSB 290800Z 05013KT 5000 RA BKN017 27/27 Q1009 A2981

More Conditions Fewer Conditions

Pressure 29.80 in
Visibility 3.1 miles
Clouds Mostly Cloudy 1700 ft
Heat Index 89 °F
Dew Point 81 °F
Humidity 100%
Rainfall 0.00 in
Snow Depth Not available.
UV 4 out of 12
Pollen Not available.
Air Quality Not available.
Flu Activity Not available.
METAR VTSB 290800Z 05013KT 5000 RA BKN017 27/27 Q1009 A2981

More Conditions Fewer Conditions

10-Day Weather Forecast

Almanac

Astronomy

Dec. 29, 2014 Rise Set
Actual Time
Civil Twilight
Nautical Twilight
Astronomical Twilight
Moon
Length of Visible Light
Length of Day
Tomorrow will be .
, % of the Moon is Illuminated

Today's Extremes

Country Highs Country Lows

Community

WunderPhotos

Upload Photos

1,781,558 photos uploaded!

WunderBlogs® & News

Nearby

Air Quality

  Air Quality AQ Index Pollutant
Not available.

Snow Depth

Station Depth Elevation

Earthquake Activity

City Distance Mag. Time & Date
Minimum magnitude displayed is 2.5.

Coastal Water Temperatures

Place Temperature

Nearby Weather Stations